Time;durP1;ratioP1;P1;durP2;ratioP2;P2;SDS_P1;SDS_P2;PMS_P1;PMS_P2;Temp;Humidity;BMP_temperature;BMP_pressure;BME280_temperature;BME280_humidity;BME280_pressure;Samples;Min_cycle;Max_cycle;Signal;HPM_P1;HPM_P2
2023/07/09 00:01:45;;;;;;;8.32;5.18;;;23.70;99.90;;;;;;5024822;28;20040;-77
2023/07/09 00:04:49;;;;;;;13.20;5.30;;;23.70;99.90;;;;;;5029813;28;20428;-76
2023/07/09 00:07:53;;;;;;;12.60;5.95;;;23.60;99.90;;;;;;5030373;28;20068;-76
2023/07/09 00:10:58;;;;;;;10.52;5.78;;;23.60;99.90;;;;;;5030096;28;20049;-77
2023/07/09 00:14:02;;;;;;;13.35;5.85;;;23.60;99.90;;;;;;5030049;28;20055;-76
2023/07/09 00:17:22;;;;;;;9.20;5.55;;;23.50;99.90;;;;;;5030019;28;20053;-76
2023/07/09 00:20:26;;;;;;;9.57;5.20;;;23.50;99.90;;;;;;5030127;28;20395;-76
2023/07/09 00:23:30;;;;;;;9.23;5.78;;;23.50;99.90;;;;;;5029412;28;20048;-76
2023/07/09 00:26:37;;;;;;;13.18;6.60;;;23.50;99.90;;;;;;5030894;28;20052;-76
2023/07/09 00:29:41;;;;;;;8.20;5.40;;;23.40;99.90;;;;;;5021864;28;20044;-77
2023/07/09 00:32:46;;;;;;;12.05;5.60;;;23.40;99.90;;;;;;5033977;28;20060;-76
2023/07/09 00:35:50;;;;;;;13.80;5.90;;;23.30;99.90;;;;;;5021576;28;20116;-76
2023/07/09 00:38:55;;;;;;;11.65;6.07;;;23.20;99.90;;;;;;5034100;28;20287;-76
2023/07/09 00:41:59;;;;;;;16.40;6.20;;;23.10;99.90;;;;;;5033648;28;20045;-76
2023/07/09 00:45:23;;;;;;;11.98;6.20;;;23.00;99.90;;;;;;5033508;28;20076;-77
2023/07/09 00:48:31;;;;;;;9.27;5.95;;;23.00;99.90;;;;;;5033724;28;20044;-75
2023/07/09 00:51:41;;;;;;;9.75;5.75;;;23.00;99.90;;;;;;5033189;28;20040;-75
2023/07/09 00:54:46;;;;;;;11.98;5.68;;;23.10;99.90;;;;;;5020580;28;20056;-76
2023/07/09 00:57:56;;;;;;;10.80;5.75;;;23.10;99.90;;;;;;5033804;28;20047;-76
2023/07/09 01:01:05;;;;;;;8.90;5.35;;;23.20;99.90;;;;;;5033598;28;20207;-75
2023/07/09 01:04:10;;;;;;;11.75;6.20;;;22.70;99.90;;;;;;5020940;28;20037;-76
2023/07/09 01:07:14;;;;;;;36.08;5.85;;;22.30;99.90;;;;;;5021107;28;20061;-75
2023/07/09 01:10:20;;;;;;;12.95;5.88;;;22.20;99.90;;;;;;5020960;28;20036;-75
2023/07/09 01:13:26;;;;;;;13.40;5.78;;;22.00;99.90;;;;;;5020846;28;20121;-75
2023/07/09 01:16:33;;;;;;;14.88;6.20;;;22.00;99.90;;;;;;5033220;28;20052;-76
2023/07/09 01:19:44;;;;;;;12.43;6.15;;;21.90;99.90;;;;;;5020864;28;20048;-75
2023/07/09 01:22:50;;;;;;;14.38;5.75;;;21.90;99.90;;;;;;5020606;28;20507;-77
2023/07/09 01:25:55;;;;;;;12.50;5.45;;;21.90;99.90;;;;;;5032836;28;20527;-77
2023/07/09 01:29:01;;;;;;;13.13;5.95;;;22.00;99.90;;;;;;5032918;28;20048;-77
2023/07/09 01:32:06;;;;;;;8.07;5.22;;;22.00;99.90;;;;;;5032483;28;20044;-77
2023/07/09 01:35:11;;;;;;;9.85;5.93;;;22.10;99.90;;;;;;5032823;28;20515;-78
2023/07/09 01:38:16;;;;;;;10.43;5.63;;;22.10;99.90;;;;;;5031675;28;20412;-77
2023/07/09 01:41:19;;;;;;;10.20;5.63;;;22.20;99.90;;;;;;5032903;28;20053;-77
2023/07/09 01:44:23;;;;;;;11.10;5.88;;;22.30;99.90;;;;;;5032722;28;20048;-76
2023/07/09 01:47:27;;;;;;;8.13;5.20;;;22.40;99.90;;;;;;5020488;28;20048;-77
2023/07/09 01:50:31;;;;;;;15.85;5.55;;;22.40;99.90;;;;;;5032652;28;20038;-77
2023/07/09 01:53:37;;;;;;;12.00;5.88;;;22.40;99.90;;;;;;5032407;28;20044;-77
2023/07/09 01:56:40;;;;;;;10.15;6.22;;;22.40;99.90;;;;;;5020191;28;20048;-77
2023/07/09 01:59:45;;;;;;;10.57;6.05;;;22.40;99.90;;;;;;5020026;28;20060;-78
2023/07/09 02:02:50;;;;;;;13.18;5.43;;;22.30;99.90;;;;;;5019475;28;20048;-78
2023/07/09 02:05:55;;;;;;;9.30;5.88;;;22.30;99.90;;;;;;5032226;28;20053;-77
2023/07/09 02:08:59;;;;;;;9.20;5.10;;;22.30;99.90;;;;;;5020031;28;20040;-77
2023/07/09 02:12:04;;;;;;;8.95;5.82;;;22.20;99.90;;;;;;5019810;28;20056;-77
2023/07/09 02:15:08;;;;;;;11.82;5.43;;;22.20;99.90;;;;;;5008445;28;20052;-77
2023/07/09 02:18:14;;;;;;;15.25;6.07;;;22.30;99.90;;;;;;5019847;28;20078;-78
2023/07/09 02:21:20;;;;;;;9.70;5.72;;;22.20;99.90;;;;;;5031548;28;20068;-77
2023/07/09 02:24:26;;;;;;;12.40;5.90;;;22.10;99.90;;;;;;5019218;28;20048;-76
2023/07/09 02:27:30;;;;;;;14.05;6.05;;;22.10;99.90;;;;;;5032036;28;20048;-76
2023/07/09 02:30:34;;;;;;;11.38;5.45;;;22.20;99.90;;;;;;5031886;28;20045;-77
2023/07/09 02:33:38;;;;;;;10.35;6.18;;;22.10;99.90;;;;;;5019493;28;20519;-77
2023/07/09 02:36:42;;;;;;;9.05;6.13;;;22.10;99.90;;;;;;5019019;28;20036;-77
2023/07/09 02:39:47;;;;;;;12.98;6.53;;;22.10;99.90;;;;;;5008084;28;20033;-76
2023/07/09 02:42:52;;;;;;;9.57;6.18;;;22.00;99.90;;;;;;5018792;28;20056;-77
2023/07/09 02:45:57;;;;;;;11.88;6.65;;;22.00;99.90;;;;;;5019402;28;20068;-77
2023/07/09 02:49:04;;;;;;;11.48;6.55;;;21.80;99.90;;;;;;5019534;28;20392;-77
2023/07/09 02:52:08;;;;;;;13.70;7.15;;;21.70;99.90;;;;;;5019386;28;20068;-77
2023/07/09 02:55:12;;;;;;;13.50;6.57;;;21.80;99.90;;;;;;5031694;28;20056;-76
2023/07/09 02:58:16;;;;;;;11.90;6.13;;;21.60;99.90;;;;;;5031786;28;20048;-77
2023/07/09 03:01:24;;;;;;;13.85;6.72;;;21.50;99.90;;;;;;5019166;28;20051;-77
2023/07/09 03:04:28;;;;;;;12.55;6.82;;;21.40;99.90;;;;;;5019277;28;20064;-77
2023/07/09 03:07:32;;;;;;;12.38;5.97;;;21.30;99.90;;;;;;5031381;28;20044;-76
2023/07/09 03:10:38;;;;;;;11.27;5.85;;;21.20;99.90;;;;;;5031120;28;20578;-76
2023/07/09 03:13:42;;;;;;;11.02;6.00;;;21.10;99.90;;;;;;5019096;28;20044;-76
2023/07/09 03:16:46;;;;;;;14.65;6.80;;;21.00;99.90;;;;;;5018479;28;20048;-78
2023/07/09 03:19:50;;;;;;;18.38;7.43;;;21.00;99.90;;;;;;5031149;28;20048;-76
2023/07/09 03:22:53;;;;;;;13.25;6.22;;;20.90;99.90;;;;;;5030733;28;20063;-77
2023/07/09 03:25:59;;;;;;;18.17;7.30;;;20.80;99.90;;;;;;5018793;28;20060;-76
2023/07/09 03:29:04;;;;;;;17.33;7.15;;;20.70;99.90;;;;;;5031058;28;20043;-76
2023/07/09 03:32:08;;;;;;;14.88;7.05;;;20.60;99.90;;;;;;5018283;28;20058;-77
2023/07/09 03:35:12;;;;;;;13.93;6.03;;;20.60;99.90;;;;;;5030911;28;20431;-77
2023/07/09 03:38:15;;;;;;;13.45;7.20;;;20.60;99.90;;;;;;5018532;28;20052;-78
2023/07/09 03:41:20;;;;;;;13.25;7.30;;;20.70;99.90;;;;;;5030221;28;20435;-78
2023/07/09 03:44:25;;;;;;;10.30;6.28;;;20.70;99.90;;;;;;5030595;28;20048;-77
2023/07/09 03:47:29;;;;;;;10.07;6.47;;;20.80;99.90;;;;;;5030895;28;20502;-76
2023/07/09 03:50:33;;;;;;;12.15;6.43;;;20.80;99.90;;;;;;5030601;28;20040;-76
2023/07/09 03:53:37;;;;;;;11.23;6.60;;;20.80;99.90;;;;;;5030984;28;20048;-76
2023/07/09 03:56:41;;;;;;;10.38;6.20;;;20.80;99.90;;;;;;5030540;28;20052;-77
2023/07/09 03:59:45;;;;;;;10.93;6.22;;;20.90;99.90;;;;;;5030782;28;20044;-78
2023/07/09 04:02:49;;;;;;;10.20;5.68;;;20.90;99.90;;;;;;5029322;28;20496;-76
2023/07/09 04:05:53;;;;;;;12.63;6.40;;;21.00;99.90;;;;;;5030042;28;20396;-77
2023/07/09 04:08:57;;;;;;;12.95;6.20;;;21.10;99.90;;;;;;5030381;28;20048;-76
2023/07/09 04:12:02;;;;;;;10.23;6.15;;;21.20;99.90;;;;;;5029899;28;20048;-76
2023/07/09 04:15:08;;;;;;;13.60;6.72;;;21.30;99.90;;;;;;5029947;28;20064;-76
2023/07/09 04:18:12;;;;;;;11.52;6.20;;;21.30;99.90;;;;;;5030073;28;20391;-76
2023/07/09 04:21:16;;;;;;;13.50;6.40;;;21.30;99.90;;;;;;5029782;28;20045;-76
2023/07/09 04:24:21;;;;;;;9.60;6.18;;;21.40;99.90;;;;;;5029873;28;20507;-76
2023/07/09 04:27:28;;;;;;;9.75;6.13;;;21.40;99.90;;;;;;5029956;28;20048;-77
2023/07/09 04:30:32;;;;;;;13.90;6.85;;;21.30;99.90;;;;;;5029340;28;20460;-77
2023/07/09 04:33:37;;;;;;;14.85;7.65;;;21.40;99.90;;;;;;5030320;28;20045;-76
2023/07/09 04:36:41;;;;;;;12.90;6.13;;;21.90;99.90;;;;;;5030722;28;20045;-76
2023/07/09 04:39:47;;;;;;;10.70;6.03;;;23.90;99.90;;;;;;5030326;28;20396;-76
2023/07/09 04:42:51;;;;;;;12.63;6.40;;;25.90;99.90;;;;;;5030091;28;20044;-76
2023/07/09 04:45:55;;;;;;;13.07;6.63;;;27.40;99.90;;;;;;5030257;28;20056;-76
2023/07/09 04:49:00;;;;;;;9.68;5.93;;;28.50;99.90;;;;;;5029220;28;20044;-77
2023/07/09 04:52:04;;;;;;;11.13;5.97;;;29.50;99.90;;;;;;5020380;28;20045;-76
2023/07/09 04:55:08;;;;;;;9.93;6.18;;;30.20;99.90;;;;;;5029183;28;20064;-76
2023/07/09 04:58:12;;;;;;;18.30;6.30;;;30.70;99.90;;;;;;5030636;28;20065;-76
2023/07/09 05:01:16;;;;;;;14.43;6.75;;;31.40;99.90;;;;;;5017905;28;20078;-76
2023/07/09 05:04:20;;;;;;;12.23;6.70;;;32.00;99.90;;;;;;5030634;28;20052;-77
2023/07/09 05:07:24;;;;;;;10.57;6.55;;;32.50;99.90;;;;;;5010829;28;20049;-76
2023/07/09 05:10:29;;;;;;;12.68;5.85;;;33.00;99.90;;;;;;4998804;28;20052;-75
2023/07/09 05:13:33;;;;;;;13.23;5.88;;;33.20;99.90;;;;;;5012430;28;20037;-77
2023/07/09 05:16:37;;;;;;;11.65;6.25;;;33.00;99.90;;;;;;5030156;28;20040;-77
2023/07/09 05:19:41;;;;;;;12.88;5.82;;;33.20;99.90;;;;;;5027882;28;20048;-77
2023/07/09 05:22:44;;;;;;;11.35;6.13;;;33.30;99.90;;;;;;5032513;28;20052;-76
2023/07/09 05:25:48;;;;;;;10.63;5.80;;;31.30;99.90;;;;;;5033204;28;20428;-78
2023/07/09 05:28:52;;;;;;;15.43;6.70;;;31.30;99.90;;;;;;5028526;28;20523;-76
2023/07/09 05:31:56;;;;;;;12.18;6.35;;;31.80;99.90;;;;;;5032764;28;20052;-77
2023/07/09 05:35:00;;;;;;;11.00;6.05;;;30.80;99.90;;;;;;5033196;28;20163;-77
2023/07/09 05:38:04;;;;;;;11.13;6.32;;;31.80;99.90;;;;;;5032672;28;20048;-77
2023/07/09 05:41:08;;;;;;;9.93;5.65;;;31.60;99.90;;;;;;5020491;28;20052;-77
2023/07/09 05:44:12;;;;;;;11.82;5.88;;;31.90;99.90;;;;;;5032892;28;20043;-77
2023/07/09 05:47:16;;;;;;;13.77;5.78;;;32.80;99.90;;;;;;5020550;28;20388;-77
2023/07/09 05:50:20;;;;;;;9.60;5.20;;;32.20;99.90;;;;;;5032815;28;20498;-78
2023/07/09 05:53:24;;;;;;;9.30;5.88;;;32.50;99.90;;;;;;5032307;28;20045;-77
2023/07/09 05:56:28;;;;;;;8.55;5.22;;;32.60;99.90;;;;;;5032488;28;20052;-78
2023/07/09 05:59:32;;;;;;;11.63;6.00;;;32.40;99.90;;;;;;5032198;28;20056;-78
2023/07/09 06:02:37;;;;;;;13.68;5.95;;;31.90;99.90;;;;;;5032141;28;20048;-76
2023/07/09 06:05:41;;;;;;;10.88;5.78;;;31.30;99.90;;;;;;5032475;28;20404;-76
2023/07/09 06:08:46;;;;;;;6.78;5.15;;;29.30;99.90;;;;;;5031784;28;20399;-76
2023/07/09 06:11:52;;;;;;;17.38;5.25;;;29.20;99.90;;;;;;5019666;28;20045;-76
2023/07/09 06:14:56;;;;;;;9.48;5.95;;;30.10;99.90;;;;;;5032380;28;20060;-77
2023/07/09 06:18:00;;;;;;;8.10;5.40;;;29.60;99.90;;;;;;5032327;28;20044;-76
2023/07/09 06:21:04;;;;;;;9.18;5.03;;;29.90;99.90;;;;;;5031888;28;20053;-77
2023/07/09 06:24:08;;;;;;;7.80;5.18;;;31.10;99.90;;;;;;5031653;28;20056;-76
2023/07/09 06:27:12;;;;;;;10.15;5.72;;;31.80;99.90;;;;;;5019886;28;20384;-77
2023/07/09 06:30:19;;;;;;;10.75;5.60;;;31.70;99.90;;;;;;5031592;28;20060;-76
2023/07/09 06:33:25;;;;;;;9.00;5.32;;;32.30;99.90;;;;;;5031716;28;20040;-78
2023/07/09 06:36:30;;;;;;;7.72;5.32;;;32.30;99.90;;;;;;5032266;28;20044;-78
2023/07/09 06:39:34;;;;;;;12.63;5.28;;;32.70;99.90;;;;;;5031512;28;20045;-77
2023/07/09 06:42:37;;;;;;;10.23;5.55;;;33.40;99.10;;;;;;5031604;28;20056;-78
2023/07/09 06:45:52;;;;;;;10.38;6.28;;;34.00;98.50;;;;;;5019459;28;20048;-77
2023/07/09 06:48:56;;;;;;;12.55;5.15;;;34.30;97.40;;;;;;5031495;28;20052;-77
2023/07/09 06:52:01;;;;;;;10.50;5.65;;;34.40;97.50;;;;;;5031169;28;20064;-77
2023/07/09 06:55:05;;;;;;;7.63;5.15;;;35.00;97.00;;;;;;5031345;28;20056;-77
2023/07/09 06:58:09;;;;;;;10.63;5.18;;;34.90;96.60;;;;;;5031296;28;20044;-77
2023/07/09 07:01:13;;;;;;;11.52;5.47;;;34.00;96.60;;;;;;5031486;28;20523;-77
2023/07/09 07:04:17;;;;;;;7.30;5.82;;;33.70;96.20;;;;;;5031317;28;20044;-75
2023/07/09 07:07:21;;;;;;;7.35;5.25;;;33.60;97.20;;;;;;5031469;28;20045;-76
2023/07/09 07:10:26;;;;;;;6.65;4.97;;;34.00;96.60;;;;;;5030898;28;20052;-77
2023/07/09 07:13:39;;;;;;;11.70;5.57;;;34.20;96.80;;;;;;5030813;28;20511;-77
2023/07/09 07:16:43;;;;;;;10.23;5.60;;;34.90;97.00;;;;;;5031001;28;20045;-75
2023/07/09 07:19:49;;;;;;;8.27;5.50;;;35.60;96.40;;;;;;5030777;28;20060;-76
2023/07/09 07:22:54;;;;;;;7.47;5.10;;;35.30;96.10;;;;;;5030445;28;20056;-76
2023/07/09 07:25:58;;;;;;;8.82;5.20;;;36.40;95.70;;;;;;5030855;28;20052;-77
2023/07/09 07:29:02;;;;;;;9.23;5.25;;;37.40;95.40;;;;;;5030772;28;20048;-77
2023/07/09 07:32:06;;;;;;;9.80;6.05;;;37.80;94.60;;;;;;5030236;28;20056;-76
2023/07/09 07:35:11;;;;;;;6.95;4.70;;;37.00;94.40;;;;;;5030856;28;20052;-78
2023/07/09 07:38:15;;;;;;;8.63;5.30;;;36.60;94.80;;;;;;5030694;28;20044;-77
2023/07/09 07:41:19;;;;;;;11.52;5.63;;;37.10;94.70;;;;;;5029842;28;20045;-77
2023/07/09 07:44:23;;;;;;;10.18;5.22;;;37.70;94.00;;;;;;5031126;28;20502;-77
2023/07/09 07:47:27;;;;;;;10.77;5.55;;;38.30;93.40;;;;;;5031991;28;20037;-77
2023/07/09 07:50:31;;;;;;;7.18;5.25;;;37.20;93.90;;;;;;5018305;28;20041;-76
2023/07/09 07:53:35;;;;;;;11.75;6.68;;;36.00;95.00;;;;;;5029966;28;20044;-78
2023/07/09 07:56:39;;;;;;;8.63;5.47;;;37.30;94.20;;;;;;5030669;28;20064;-77
2023/07/09 07:59:43;;;;;;;9.13;5.13;;;38.10;93.40;;;;;;5030483;28;20040;-77
2023/07/09 08:02:47;;;;;;;12.73;5.43;;;37.50;93.10;;;;;;5029790;28;20056;-76
2023/07/09 08:05:52;;;;;;;8.80;5.35;;;36.90;94.00;;;;;;5030714;28;20056;-78
2023/07/09 08:08:56;;;;;;;6.10;4.70;;;35.90;93.70;;;;;;5030333;28;20384;-78
2023/07/09 08:12:01;;;;;;;8.52;4.93;;;37.80;93.40;;;;;;5029525;28;20068;-79
2023/07/09 08:15:06;;;;;;;7.20;4.90;;;39.40;92.20;;;;;;5030059;28;20057;-78
2023/07/09 08:18:09;;;;;;;12.80;5.20;;;38.90;91.50;;;;;;5030439;28;20507;-77
2023/07/09 08:21:13;;;;;;;7.60;4.53;;;39.40;90.90;;;;;;5029438;28;20048;-76
2023/07/09 08:24:18;;;;;;;6.18;4.30;;;39.50;91.10;;;;;;5030305;28;20056;-77
2023/07/09 08:27:22;;;;;;;5.70;4.53;;;39.90;90.80;;;;;;5030336;28;20040;-78
2023/07/09 08:30:26;;;;;;;10.15;4.82;;;41.00;90.20;;;;;;5030200;28;20052;-80
2023/07/09 08:33:31;;;;;;;7.25;4.53;;;42.10;90.00;;;;;;5030197;28;20041;-76
2023/07/09 08:36:35;;;;;;;9.63;4.43;;;43.10;86.20;;;;;;5030097;28;20049;-77
2023/07/09 08:39:42;;;;;;;9.15;4.13;;;41.70;86.60;;;;;;5030122;28;20064;-79
2023/07/09 08:42:49;;;;;;;5.97;4.07;;;41.60;87.50;;;;;;5029307;28;20060;-78
2023/07/09 08:46:18;;;;;;;7.32;4.45;;;42.50;86.10;;;;;;5030119;28;20060;-77
2023/07/09 08:49:38;;;;;;;7.45;4.40;;;39.90;85.40;;;;;;5034406;28;20040;-76
2023/07/09 08:52:44;;;;;;;5.85;4.60;;;39.50;87.10;;;;;;5033508;28;20048;-77
2023/07/09 08:55:51;;;;;;;6.03;4.32;;;41.50;86.10;;;;;;5033915;28;20044;-78
2023/07/09 08:58:58;;;;;;;5.65;4.22;;;41.60;85.60;;;;;;5010278;28;20404;-78
2023/07/09 09:02:05;;;;;;;9.07;4.50;;;41.70;83.80;;;;;;5033304;28;20053;-79
2023/07/09 09:05:12;;;;;;;7.35;4.32;;;43.00;83.10;;;;;;5033969;28;20056;-76
2023/07/09 09:08:22;;;;;;;5.90;4.35;;;43.10;82.00;;;;;;5033812;28;20396;-76
2023/07/09 09:11:43;;;;;;;;;;;43.90;81.80;;;;;;5033080;28;20511;-78
2023/07/09 09:15:16;;;;;;;5.32;3.75;;;43.60;80.50;;;;;;5034023;28;19916;-75
2023/07/09 09:18:28;;;;;;;10.38;4.10;;;43.00;80.70;;;;;;5021267;28;20546;-78
2023/07/09 09:21:35;;;;;;;7.95;3.63;;;42.60;80.90;;;;;;5032424;28;20044;-78
2023/07/09 09:25:03;;;;;;;7.03;3.70;;;43.90;79.30;;;;;;5033281;28;20049;-76
2023/07/09 09:28:08;;;;;;;8.82;4.20;;;44.80;78.80;;;;;;5033707;28;20220;-78
2023/07/09 09:31:12;;;;;;;7.93;3.75;;;42.50;78.00;;;;;;5020312;28;20048;-77
2023/07/09 09:34:22;;;;;;;5.40;3.70;;;42.60;78.60;;;;;;5032969;28;20048;-79
2023/07/09 09:37:31;;;;;;;7.10;3.60;;;45.80;77.20;;;;;;5033381;28;20052;-76
2023/07/09 09:40:37;;;;;;;20.92;7.75;;;45.70;74.90;;;;;;5032596;28;20048;-77
2023/07/09 09:43:44;;;;;;;8.05;4.10;;;46.10;73.50;;;;;;5033625;28;20041;-78
2023/07/09 09:46:50;;;;;;;5.50;3.80;;;46.40;72.60;;;;;;5027433;28;20499;-77
2023/07/09 09:49:54;;;;;;;7.00;3.90;;;46.20;73.50;;;;;;5025458;28;20491;-77
2023/07/09 09:53:01;;;;;;;6.10;3.38;;;42.80;71.40;;;;;;5016392;28;20049;-76
2023/07/09 09:56:06;;;;;;;4.75;3.45;;;45.30;73.50;;;;;;5021170;28;20064;-77
2023/07/09 09:59:19;;;;;;;6.40;3.60;;;45.80;71.40;;;;;;5024753;28;20052;-76
2023/07/09 10:02:25;;;;;;;10.05;3.70;;;47.20;70.70;;;;;;5021301;28;20040;-76
2023/07/09 10:05:37;;;;;;;6.97;3.67;;;47.90;71.00;;;;;;5020514;28;20036;-77
2023/07/09 10:09:02;;;;;;;9.98;3.58;;;49.00;69.60;;;;;;5024948;28;20041;-81
2023/07/09 10:12:32;;;;;;;6.85;3.35;;;46.30;67.00;;;;;;5016066;28;20044;-77
2023/07/09 10:15:45;;;;;;;5.47;3.58;;;47.20;69.70;;;;;;5016417;28;20052;-77
2023/07/09 10:19:10;;;;;;;10.75;3.80;;;47.00;68.10;;;;;;5015510;28;20076;-78
2023/07/09 10:22:39;;;;;;;9.63;3.80;;;48.20;67.20;;;;;;5013155;28;20044;-78
2023/07/09 10:25:56;;;;;;;9.20;3.90;;;48.10;67.60;;;;;;5012914;28;20057;-79
2023/07/09 10:29:02;;;;;;;6.20;3.58;;;47.90;66.70;;;;;;5028193;28;20052;-75
2023/07/09 10:32:25;;;;;;;7.45;3.80;;;47.30;68.40;;;;;;5032055;28;20040;-78
2023/07/09 10:35:51;;;;;;;6.90;3.80;;;44.80;69.90;;;;;;5027803;28;20491;-76
2023/07/09 10:38:58;;;;;;;8.15;3.67;;;46.80;67.80;;;;;;5013749;28;20056;-79
2023/07/09 10:42:03;;;;;;;7.10;3.75;;;47.20;68.40;;;;;;5011845;28;20048;-78
2023/07/09 10:45:30;;;;;;;20.77;5.25;;;46.10;68.70;;;;;;5025431;28;20060;-74
2023/07/09 10:48:41;;;;;;;9.90;3.42;;;47.70;68.00;;;;;;5029833;28;20064;-76
2023/07/09 10:51:59;;;;;;;7.55;3.33;;;49.50;66.50;;;;;;5017984;28;20138;-74
2023/07/09 10:55:25;;;;;;;7.85;3.63;;;50.60;66.50;;;;;;5012460;28;20048;-75
2023/07/09 10:59:01;;;;;;;5.68;3.50;;;50.20;65.00;;;;;;5012690;28;20053;-75
2023/07/09 11:02:20;;;;;;;6.95;3.38;;;48.00;66.10;;;;;;5019376;28;20033;-82
2023/07/09 11:05:24;;;;;;;11.75;4.30;;;49.00;67.10;;;;;;5020252;28;20048;-76
2023/07/09 11:08:38;;;;;;;5.60;3.25;;;49.80;65.20;;;;;;5033235;28;20048;-76
2023/07/09 11:11:49;;;;;;;4.03;3.35;;;50.70;63.50;;;;;;5028450;28;20044;-78
2023/07/09 11:15:25;;;;;;;6.35;3.45;;;50.80;63.60;;;;;;5012701;28;20049;-76
2023/07/09 11:18:34;;;;;;;4.75;3.25;;;47.60;63.40;;;;;;5012572;28;20048;-83
2023/07/09 11:22:00;;;;;;;7.28;3.35;;;47.10;64.20;;;;;;5025789;28;20044;-82
2023/07/09 11:25:26;;;;;;;6.80;3.42;;;47.80;64.30;;;;;;5031959;28;20040;-81
2023/07/09 11:28:38;;;;;;;4.53;3.40;;;48.30;62.50;;;;;;5031746;28;20041;-76
2023/07/09 11:31:46;;;;;;;8.48;3.35;;;47.40;62.50;;;;;;5031723;28;20120;-79
2023/07/09 11:34:50;;;;;;;4.38;3.50;;;44.00;64.40;;;;;;5032945;28;20103;-76
2023/07/09 11:37:55;;;;;;;5.20;3.30;;;41.10;68.40;;;;;;5031923;28;20044;-80
2023/07/09 11:40:59;;;;;;;5.45;3.30;;;42.40;66.70;;;;;;5020060;28;20045;-77
2023/07/09 11:44:16;;;;;;;11.20;5.82;;;43.40;66.30;;;;;;5031112;28;20044;-79
2023/07/09 11:47:36;;;;;;;5.68;3.20;;;45.00;67.20;;;;;;5031391;28;20053;-78
2023/07/09 11:50:44;;;;;;;7.00;3.90;;;45.70;65.90;;;;;;5020339;28;20052;-83
2023/07/09 11:53:54;;;;;;;14.87;5.10;;;43.30;65.40;;;;;;5031399;28;20064;-80
2023/07/09 11:57:00;;;;;;;9.73;3.65;;;41.50;67.60;;;;;;5031156;28;20068;-80
2023/07/09 12:00:05;;;;;;;6.45;3.33;;;41.60;69.20;;;;;;5031660;28;20380;-80
2023/07/09 12:03:25;;;;;;;7.95;3.53;;;43.10;67.80;;;;;;5030535;28;20535;-80
2023/07/09 12:06:32;;;;;;;8.13;3.55;;;44.30;66.80;;;;;;5031264;28;20060;-79
2023/07/09 12:09:42;;;;;;;10.05;3.88;;;44.20;65.50;;;;;;5031532;28;20040;-78
